sensor_id;sensor_type;location;lat;lon;timestamp;P1;durP1;ratioP1;P2;durP2;ratioP2
53299;SDS011;39187;48.476;8.310;2023-06-26T00:01:57;6.90;;;6.57;;
53299;SDS011;39187;48.476;8.310;2023-06-26T00:04:22;7.43;;;6.83;;
53299;SDS011;39187;48.476;8.310;2023-06-26T00:06:48;7.10;;;6.57;;
53299;SDS011;39187;48.476;8.310;2023-06-26T00:09:14;7.00;;;6.53;;
53299;SDS011;39187;48.476;8.310;2023-06-26T00:11:39;6.93;;;6.57;;
53299;SDS011;39187;48.476;8.310;2023-06-26T00:14:05;7.10;;;6.80;;
53299;SDS011;39187;48.476;8.310;2023-06-26T00:16:31;7.70;;;7.13;;
53299;SDS011;39187;48.476;8.310;2023-06-26T00:18:57;7.30;;;6.90;;
53299;SDS011;39187;48.476;8.310;2023-06-26T00:21:24;6.43;;;6.20;;
53299;SDS011;39187;48.476;8.310;2023-06-26T00:23:50;6.47;;;6.17;;
53299;SDS011;39187;48.476;8.310;2023-06-26T00:26:16;6.77;;;6.40;;
53299;SDS011;39187;48.476;8.310;2023-06-26T00:28:42;6.73;;;6.33;;
53299;SDS011;39187;48.476;8.310;2023-06-26T00:31:07;5.93;;;5.63;;
53299;SDS011;39187;48.476;8.310;2023-06-26T00:33:33;7.53;;;7.13;;
53299;SDS011;39187;48.476;8.310;2023-06-26T00:35:58;6.80;;;6.50;;
53299;SDS011;39187;48.476;8.310;2023-06-26T00:38:24;6.30;;;5.90;;
53299;SDS011;39187;48.476;8.310;2023-06-26T00:40:50;5.90;;;5.60;;
53299;SDS011;39187;48.476;8.310;2023-06-26T00:43:16;5.90;;;5.60;;
53299;SDS011;39187;48.476;8.310;2023-06-26T00:45:41;5.60;;;5.40;;
53299;SDS011;39187;48.476;8.310;2023-06-26T00:48:07;6.00;;;5.80;;
53299;SDS011;39187;48.476;8.310;2023-06-26T00:50:37;6.63;;;6.23;;
53299;SDS011;39187;48.476;8.310;2023-06-26T00:53:02;5.77;;;5.53;;
53299;SDS011;39187;48.476;8.310;2023-06-26T00:55:29;6.50;;;6.10;;
53299;SDS011;39187;48.476;8.310;2023-06-26T00:57:55;6.00;;;5.80;;
53299;SDS011;39187;48.476;8.310;2023-06-26T01:00:20;6.07;;;5.73;;
53299;SDS011;39187;48.476;8.310;2023-06-26T01:02:46;5.63;;;5.23;;
53299;SDS011;39187;48.476;8.310;2023-06-26T01:05:12;6.20;;;5.90;;
53299;SDS011;39187;48.476;8.310;2023-06-26T01:07:46;6.50;;;6.10;;
53299;SDS011;39187;48.476;8.310;2023-06-26T01:10:13;6.50;;;6.03;;
53299;SDS011;39187;48.476;8.310;2023-06-26T01:12:39;6.10;;;5.80;;
53299;SDS011;39187;48.476;8.310;2023-06-26T01:15:05;6.33;;;6.00;;
53299;SDS011;39187;48.476;8.310;2023-06-26T01:17:30;6.17;;;5.77;;
53299;SDS011;39187;48.476;8.310;2023-06-26T01:19:58;6.63;;;6.20;;
53299;SDS011;39187;48.476;8.310;2023-06-26T01:27:22;5.47;;;5.17;;
53299;SDS011;39187;48.476;8.310;2023-06-26T01:29:51;6.13;;;5.83;;
53299;SDS011;39187;48.476;8.310;2023-06-26T01:32:18;6.67;;;6.07;;
53299;SDS011;39187;48.476;8.310;2023-06-26T01:34:44;6.23;;;5.93;;
53299;SDS011;39187;48.476;8.310;2023-06-26T01:37:10;7.43;;;6.93;;
53299;SDS011;39187;48.476;8.310;2023-06-26T01:39:35;8.00;;;7.40;;
53299;SDS011;39187;48.476;8.310;2023-06-26T01:42:01;6.87;;;6.47;;
53299;SDS011;39187;48.476;8.310;2023-06-26T01:44:28;7.27;;;6.87;;
53299;SDS011;39187;48.476;8.310;2023-06-26T01:46:59;6.87;;;6.53;;
53299;SDS011;39187;48.476;8.310;2023-06-26T01:52:12;7.97;;;7.30;;
53299;SDS011;39187;48.476;8.310;2023-06-26T01:54:48;8.30;;;7.70;;
53299;SDS011;39187;48.476;8.310;2023-06-26T01:57:32;6.73;;;6.40;;
53299;SDS011;39187;48.476;8.310;2023-06-26T02:00:00;7.30;;;6.70;;
53299;SDS011;39187;48.476;8.310;2023-06-26T02:02:28;7.00;;;6.60;;
53299;SDS011;39187;48.476;8.310;2023-06-26T02:04:54;7.70;;;7.07;;
53299;SDS011;39187;48.476;8.310;2023-06-26T02:07:20;7.77;;;7.07;;
53299;SDS011;39187;48.476;8.310;2023-06-26T02:09:45;7.03;;;6.53;;
53299;SDS011;39187;48.476;8.310;2023-06-26T02:12:11;6.73;;;6.43;;
53299;SDS011;39187;48.476;8.310;2023-06-26T02:14:36;7.10;;;6.70;;
53299;SDS011;39187;48.476;8.310;2023-06-26T02:17:02;7.20;;;6.53;;
53299;SDS011;39187;48.476;8.310;2023-06-26T02:19:27;7.10;;;6.70;;
53299;SDS011;39187;48.476;8.310;2023-06-26T02:21:53;6.60;;;6.30;;
53299;SDS011;39187;48.476;8.310;2023-06-26T02:24:19;7.30;;;6.80;;
53299;SDS011;39187;48.476;8.310;2023-06-26T02:26:45;7.83;;;7.33;;
53299;SDS011;39187;48.476;8.310;2023-06-26T02:29:11;6.73;;;6.43;;
53299;SDS011;39187;48.476;8.310;2023-06-26T02:31:37;7.07;;;6.67;;
53299;SDS011;39187;48.476;8.310;2023-06-26T02:34:03;8.40;;;7.90;;
53299;SDS011;39187;48.476;8.310;2023-06-26T02:36:29;6.73;;;6.40;;
53299;SDS011;39187;48.476;8.310;2023-06-26T02:38:55;6.50;;;6.20;;
53299;SDS011;39187;48.476;8.310;2023-06-26T02:41:20;6.77;;;6.23;;
53299;SDS011;39187;48.476;8.310;2023-06-26T02:43:46;6.30;;;5.90;;
53299;SDS011;39187;48.476;8.310;2023-06-26T02:46:12;7.50;;;7.00;;
53299;SDS011;39187;48.476;8.310;2023-06-26T02:48:37;6.33;;;6.03;;
53299;SDS011;39187;48.476;8.310;2023-06-26T02:51:03;6.60;;;6.17;;
53299;SDS011;39187;48.476;8.310;2023-06-26T02:53:28;7.07;;;6.67;;
53299;SDS011;39187;48.476;8.310;2023-06-26T02:55:54;6.83;;;6.53;;
53299;SDS011;39187;48.476;8.310;2023-06-26T02:58:19;6.73;;;6.43;;
53299;SDS011;39187;48.476;8.310;2023-06-26T03:00:45;6.50;;;6.10;;
53299;SDS011;39187;48.476;8.310;2023-06-26T03:03:12;7.50;;;7.10;;
53299;SDS011;39187;48.476;8.310;2023-06-26T03:05:38;6.80;;;6.50;;
53299;SDS011;39187;48.476;8.310;2023-06-26T03:08:03;7.80;;;7.30;;
53299;SDS011;39187;48.476;8.310;2023-06-26T03:10:29;6.30;;;6.00;;
53299;SDS011;39187;48.476;8.310;2023-06-26T03:12:55;7.20;;;6.90;;
53299;SDS011;39187;48.476;8.310;2023-06-26T03:15:20;5.97;;;5.77;;
53299;SDS011;39187;48.476;8.310;2023-06-26T03:17:45;6.60;;;6.30;;
53299;SDS011;39187;48.476;8.310;2023-06-26T03:20:11;6.50;;;6.23;;
53299;SDS011;39187;48.476;8.310;2023-06-26T03:22:36;7.00;;;6.60;;
53299;SDS011;39187;48.476;8.310;2023-06-26T03:25:02;6.40;;;6.10;;
53299;SDS011;39187;48.476;8.310;2023-06-26T03:27:28;7.47;;;7.07;;
53299;SDS011;39187;48.476;8.310;2023-06-26T03:29:53;5.83;;;5.53;;
53299;SDS011;39187;48.476;8.310;2023-06-26T03:32:19;7.87;;;6.80;;
53299;SDS011;39187;48.476;8.310;2023-06-26T03:34:44;6.90;;;6.60;;
53299;SDS011;39187;48.476;8.310;2023-06-26T03:37:10;6.03;;;5.70;;
53299;SDS011;39187;48.476;8.310;2023-06-26T03:39:36;6.70;;;6.27;;
53299;SDS011;39187;48.476;8.310;2023-06-26T03:42:01;6.70;;;6.20;;
53299;SDS011;39187;48.476;8.310;2023-06-26T03:44:27;6.27;;;5.87;;
53299;SDS011;39187;48.476;8.310;2023-06-26T03:46:53;6.60;;;6.30;;
53299;SDS011;39187;48.476;8.310;2023-06-26T03:49:19;6.70;;;6.40;;
53299;SDS011;39187;48.476;8.310;2023-06-26T03:51:44;6.60;;;6.20;;
53299;SDS011;39187;48.476;8.310;2023-06-26T03:54:10;6.30;;;6.00;;
53299;SDS011;39187;48.476;8.310;2023-06-26T03:56:36;6.13;;;5.67;;
53299;SDS011;39187;48.476;8.310;2023-06-26T03:59:01;6.33;;;5.90;;
53299;SDS011;39187;48.476;8.310;2023-06-26T04:01:27;6.30;;;6.00;;
53299;SDS011;39187;48.476;8.310;2023-06-26T04:03:53;5.90;;;5.60;;
53299;SDS011;39187;48.476;8.310;2023-06-26T04:06:19;6.60;;;6.30;;
53299;SDS011;39187;48.476;8.310;2023-06-26T04:08:45;6.23;;;6.00;;
53299;SDS011;39187;48.476;8.310;2023-06-26T04:11:10;5.80;;;5.50;;
53299;SDS011;39187;48.476;8.310;2023-06-26T04:13:36;5.30;;;5.10;;
53299;SDS011;39187;48.476;8.310;2023-06-26T04:16:02;6.17;;;5.93;;
53299;SDS011;39187;48.476;8.310;2023-06-26T04:18:27;6.57;;;6.27;;
53299;SDS011;39187;48.476;8.310;2023-06-26T04:21:09;7.10;;;6.73;;
53299;SDS011;39187;48.476;8.310;2023-06-26T04:23:38;6.33;;;6.03;;
53299;SDS011;39187;48.476;8.310;2023-06-26T04:26:05;7.60;;;6.37;;
53299;SDS011;39187;48.476;8.310;2023-06-26T04:28:34;6.40;;;6.03;;
53299;SDS011;39187;48.476;8.310;2023-06-26T04:31:01;5.50;;;5.30;;
53299;SDS011;39187;48.476;8.310;2023-06-26T04:33:28;6.87;;;6.33;;
53299;SDS011;39187;48.476;8.310;2023-06-26T04:35:54;6.60;;;6.20;;
53299;SDS011;39187;48.476;8.310;2023-06-26T04:38:20;6.73;;;6.33;;
53299;SDS011;39187;48.476;8.310;2023-06-26T04:40:46;5.80;;;5.60;;
53299;SDS011;39187;48.476;8.310;2023-06-26T04:43:15;5.70;;;5.40;;
53299;SDS011;39187;48.476;8.310;2023-06-26T04:45:40;6.90;;;6.50;;
53299;SDS011;39187;48.476;8.310;2023-06-26T04:48:06;5.67;;;5.47;;
53299;SDS011;39187;48.476;8.310;2023-06-26T04:50:32;6.73;;;6.40;;
53299;SDS011;39187;48.476;8.310;2023-06-26T04:52:58;5.77;;;5.47;;
53299;SDS011;39187;48.476;8.310;2023-06-26T04:55:24;6.70;;;6.33;;
53299;SDS011;39187;48.476;8.310;2023-06-26T04:57:50;6.67;;;6.17;;
53299;SDS011;39187;48.476;8.310;2023-06-26T05:00:16;6.00;;;5.60;;
53299;SDS011;39187;48.476;8.310;2023-06-26T05:02:42;5.30;;;5.10;;
53299;SDS011;39187;48.476;8.310;2023-06-26T05:05:08;6.10;;;5.87;;
53299;SDS011;39187;48.476;8.310;2023-06-26T05:07:33;6.03;;;5.73;;
53299;SDS011;39187;48.476;8.310;2023-06-26T05:09:59;6.73;;;6.30;;
53299;SDS011;39187;48.476;8.310;2023-06-26T05:12:24;6.13;;;5.83;;
53299;SDS011;39187;48.476;8.310;2023-06-26T05:14:50;6.10;;;5.80;;
53299;SDS011;39187;48.476;8.310;2023-06-26T05:17:15;5.90;;;5.70;;
53299;SDS011;39187;48.476;8.310;2023-06-26T05:19:41;6.00;;;4.93;;
53299;SDS011;39187;48.476;8.310;2023-06-26T05:22:07;6.20;;;5.80;;
53299;SDS011;39187;48.476;8.310;2023-06-26T05:24:37;6.40;;;5.80;;
53299;SDS011;39187;48.476;8.310;2023-06-26T05:27:03;6.17;;;5.80;;
53299;SDS011;39187;48.476;8.310;2023-06-26T05:29:32;6.20;;;5.90;;
53299;SDS011;39187;48.476;8.310;2023-06-26T05:31:58;5.27;;;5.07;;
53299;SDS011;39187;48.476;8.310;2023-06-26T05:34:25;6.57;;;6.17;;
53299;SDS011;39187;48.476;8.310;2023-06-26T05:36:54;5.83;;;5.53;;
53299;SDS011;39187;48.476;8.310;2023-06-26T05:39:23;6.47;;;6.17;;
53299;SDS011;39187;48.476;8.310;2023-06-26T05:41:49;6.20;;;5.70;;
53299;SDS011;39187;48.476;8.310;2023-06-26T05:44:16;6.33;;;6.00;;
53299;SDS011;39187;48.476;8.310;2023-06-26T05:46:41;5.87;;;5.67;;
53299;SDS011;39187;48.476;8.310;2023-06-26T05:49:08;5.33;;;5.07;;
53299;SDS011;39187;48.476;8.310;2023-06-26T05:51:33;6.47;;;5.90;;
53299;SDS011;39187;48.476;8.310;2023-06-26T05:53:59;6.40;;;6.10;;
53299;SDS011;39187;48.476;8.310;2023-06-26T05:56:25;6.43;;;6.13;;
53299;SDS011;39187;48.476;8.310;2023-06-26T05:58:51;5.10;;;4.90;;
53299;SDS011;39187;48.476;8.310;2023-06-26T06:01:18;6.10;;;5.90;;
53299;SDS011;39187;48.476;8.310;2023-06-26T06:03:44;6.07;;;5.60;;
53299;SDS011;39187;48.476;8.310;2023-06-26T06:06:10;6.17;;;5.70;;
53299;SDS011;39187;48.476;8.310;2023-06-26T06:08:36;6.30;;;5.90;;
53299;SDS011;39187;48.476;8.310;2023-06-26T06:11:02;5.67;;;5.47;;
53299;SDS011;39187;48.476;8.310;2023-06-26T06:13:27;5.83;;;5.60;;
53299;SDS011;39187;48.476;8.310;2023-06-26T06:15:53;5.57;;;5.27;;
53299;SDS011;39187;48.476;8.310;2023-06-26T06:18:20;5.60;;;5.23;;
53299;SDS011;39187;48.476;8.310;2023-06-26T06:20:46;5.87;;;5.37;;
53299;SDS011;39187;48.476;8.310;2023-06-26T06:23:12;8.20;;;5.27;;
53299;SDS011;39187;48.476;8.310;2023-06-26T06:25:37;6.70;;;6.40;;
53299;SDS011;39187;48.476;8.310;2023-06-26T06:28:04;6.57;;;6.03;;
53299;SDS011;39187;48.476;8.310;2023-06-26T06:30:30;5.77;;;5.37;;
53299;SDS011;39187;48.476;8.310;2023-06-26T06:32:55;6.23;;;5.93;;
53299;SDS011;39187;48.476;8.310;2023-06-26T06:35:21;6.93;;;6.60;;
53299;SDS011;39187;48.476;8.310;2023-06-26T06:37:46;6.10;;;5.73;;
53299;SDS011;39187;48.476;8.310;2023-06-26T06:40:12;5.83;;;5.53;;
53299;SDS011;39187;48.476;8.310;2023-06-26T06:42:38;5.80;;;5.60;;
53299;SDS011;39187;48.476;8.310;2023-06-26T06:45:04;7.93;;;5.67;;
53299;SDS011;39187;48.476;8.310;2023-06-26T06:47:33;6.00;;;5.80;;
53299;SDS011;39187;48.476;8.310;2023-06-26T06:49:59;6.40;;;6.20;;
53299;SDS011;39187;48.476;8.310;2023-06-26T06:52:34;5.60;;;5.20;;
53299;SDS011;39187;48.476;8.310;2023-06-26T06:55:01;6.30;;;5.77;;
53299;SDS011;39187;48.476;8.310;2023-06-26T06:57:32;6.13;;;5.60;;
53299;SDS011;39187;48.476;8.310;2023-06-26T07:00:06;6.43;;;6.20;;
53299;SDS011;39187;48.476;8.310;2023-06-26T07:02:35;5.53;;;5.23;;
53299;SDS011;39187;48.476;8.310;2023-06-26T07:05:02;6.23;;;5.90;;
53299;SDS011;39187;48.476;8.310;2023-06-26T07:07:31;6.07;;;5.87;;
53299;SDS011;39187;48.476;8.310;2023-06-26T07:10:03;6.73;;;6.30;;
53299;SDS011;39187;48.476;8.310;2023-06-26T07:12:30;6.00;;;5.80;;
53299;SDS011;39187;48.476;8.310;2023-06-26T07:14:56;6.27;;;5.83;;
53299;SDS011;39187;48.476;8.310;2023-06-26T07:17:22;5.50;;;5.30;;
53299;SDS011;39187;48.476;8.310;2023-06-26T07:19:48;6.70;;;6.50;;
53299;SDS011;39187;48.476;8.310;2023-06-26T07:22:14;6.30;;;5.80;;
53299;SDS011;39187;48.476;8.310;2023-06-26T07:24:40;5.43;;;5.23;;
53299;SDS011;39187;48.476;8.310;2023-06-26T07:27:05;6.30;;;6.10;;
53299;SDS011;39187;48.476;8.310;2023-06-26T07:29:31;6.23;;;6.00;;
53299;SDS011;39187;48.476;8.310;2023-06-26T07:31:56;6.47;;;6.27;;
53299;SDS011;39187;48.476;8.310;2023-06-26T07:34:22;7.03;;;6.50;;
53299;SDS011;39187;48.476;8.310;2023-06-26T07:36:47;6.30;;;6.10;;
53299;SDS011;39187;48.476;8.310;2023-06-26T07:39:13;6.13;;;5.93;;
53299;SDS011;39187;48.476;8.310;2023-06-26T07:41:38;6.57;;;6.07;;
53299;SDS011;39187;48.476;8.310;2023-06-26T07:44:04;7.43;;;6.43;;
53299;SDS011;39187;48.476;8.310;2023-06-26T07:46:29;6.10;;;5.90;;
53299;SDS011;39187;48.476;8.310;2023-06-26T07:48:55;6.13;;;5.93;;
53299;SDS011;39187;48.476;8.310;2023-06-26T07:51:20;6.27;;;6.00;;
53299;SDS011;39187;48.476;8.310;2023-06-26T07:53:46;6.40;;;5.80;;
53299;SDS011;39187;48.476;8.310;2023-06-26T07:56:12;5.97;;;5.77;;
53299;SDS011;39187;48.476;8.310;2023-06-26T07:58:37;6.10;;;5.90;;
53299;SDS011;39187;48.476;8.310;2023-06-26T08:01:03;6.43;;;6.13;;
53299;SDS011;39187;48.476;8.310;2023-06-26T08:03:28;6.33;;;6.10;;
53299;SDS011;39187;48.476;8.310;2023-06-26T08:05:54;6.30;;;6.10;;
53299;SDS011;39187;48.476;8.310;2023-06-26T08:08:20;5.77;;;5.47;;
53299;SDS011;39187;48.476;8.310;2023-06-26T08:10:45;7.07;;;6.67;;
53299;SDS011;39187;48.476;8.310;2023-06-26T08:13:11;6.07;;;5.67;;
53299;SDS011;39187;48.476;8.310;2023-06-26T08:15:36;6.63;;;6.33;;
53299;SDS011;39187;48.476;8.310;2023-06-26T08:18:02;6.07;;;5.87;;
53299;SDS011;39187;48.476;8.310;2023-06-26T08:20:28;6.67;;;6.20;;
53299;SDS011;39187;48.476;8.310;2023-06-26T08:22:53;6.23;;;6.03;;
53299;SDS011;39187;48.476;8.310;2023-06-26T08:25:19;5.83;;;5.53;;
53299;SDS011;39187;48.476;8.310;2023-06-26T08:27:45;6.67;;;6.27;;
53299;SDS011;39187;48.476;8.310;2023-06-26T08:30:11;7.93;;;6.40;;
53299;SDS011;39187;48.476;8.310;2023-06-26T08:32:38;7.00;;;6.57;;
53299;SDS011;39187;48.476;8.310;2023-06-26T08:35:05;7.00;;;6.50;;
53299;SDS011;39187;48.476;8.310;2023-06-26T08:37:31;6.50;;;6.20;;
53299;SDS011;39187;48.476;8.310;2023-06-26T08:39:58;6.17;;;5.80;;
53299;SDS011;39187;48.476;8.310;2023-06-26T08:42:25;5.57;;;5.37;;
53299;SDS011;39187;48.476;8.310;2023-06-26T08:44:50;6.33;;;6.03;;
53299;SDS011;39187;48.476;8.310;2023-06-26T08:47:17;6.00;;;5.80;;
53299;SDS011;39187;48.476;8.310;2023-06-26T08:49:46;6.03;;;5.83;;
53299;SDS011;39187;48.476;8.310;2023-06-26T08:52:24;6.40;;;6.10;;
53299;SDS011;39187;48.476;8.310;2023-06-26T08:54:59;6.47;;;6.27;;
53299;SDS011;39187;48.476;8.310;2023-06-26T08:57:26;5.70;;;5.50;;
53299;SDS011;39187;48.476;8.310;2023-06-26T08:59:53;5.73;;;5.53;;
53299;SDS011;39187;48.476;8.310;2023-06-26T09:02:19;6.30;;;6.00;;
53299;SDS011;39187;48.476;8.310;2023-06-26T09:04:48;6.27;;;5.90;;
53299;SDS011;39187;48.476;8.310;2023-06-26T09:07:14;6.10;;;5.70;;
53299;SDS011;39187;48.476;8.310;2023-06-26T09:09:40;6.07;;;5.87;;
53299;SDS011;39187;48.476;8.310;2023-06-26T09:12:06;6.40;;;5.97;;
53299;SDS011;39187;48.476;8.310;2023-06-26T09:14:33;6.80;;;6.53;;
53299;SDS011;39187;48.476;8.310;2023-06-26T09:16:58;7.20;;;6.60;;
53299;SDS011;39187;48.476;8.310;2023-06-26T09:19:24;7.90;;;7.50;;
53299;SDS011;39187;48.476;8.310;2023-06-26T09:21:50;6.57;;;6.20;;
53299;SDS011;39187;48.476;8.310;2023-06-26T09:24:16;6.60;;;6.30;;
53299;SDS011;39187;48.476;8.310;2023-06-26T09:26:42;7.60;;;7.30;;
53299;SDS011;39187;48.476;8.310;2023-06-26T09:29:08;7.73;;;7.07;;
53299;SDS011;39187;48.476;8.310;2023-06-26T09:31:37;6.83;;;6.60;;
53299;SDS011;39187;48.476;8.310;2023-06-26T09:34:04;8.47;;;8.10;;
53299;SDS011;39187;48.476;8.310;2023-06-26T09:36:31;8.43;;;7.97;;
53299;SDS011;39187;48.476;8.310;2023-06-26T09:39:02;8.47;;;7.80;;
53299;SDS011;39187;48.476;8.310;2023-06-26T09:41:29;9.07;;;8.57;;
53299;SDS011;39187;48.476;8.310;2023-06-26T09:43:57;8.40;;;7.93;;
53299;SDS011;39187;48.476;8.310;2023-06-26T09:46:28;9.43;;;8.63;;
53299;SDS011;39187;48.476;8.310;2023-06-26T09:49:01;8.33;;;8.03;;
53299;SDS011;39187;48.476;8.310;2023-06-26T09:51:31;7.83;;;7.53;;
53299;SDS011;39187;48.476;8.310;2023-06-26T09:53:58;8.53;;;7.93;;
53299;SDS011;39187;48.476;8.310;2023-06-26T09:56:24;8.90;;;8.37;;
53299;SDS011;39187;48.476;8.310;2023-06-26T09:58:50;7.57;;;7.17;;
53299;SDS011;39187;48.476;8.310;2023-06-26T10:01:17;8.33;;;7.73;;
53299;SDS011;39187;48.476;8.310;2023-06-26T10:03:44;7.90;;;7.37;;
53299;SDS011;39187;48.476;8.310;2023-06-26T10:06:10;8.70;;;8.03;;
53299;SDS011;39187;48.476;8.310;2023-06-26T10:08:38;7.80;;;7.30;;
53299;SDS011;39187;48.476;8.310;2023-06-26T10:11:06;9.20;;;8.70;;
53299;SDS011;39187;48.476;8.310;2023-06-26T10:13:38;7.70;;;7.40;;
53299;SDS011;39187;48.476;8.310;2023-06-26T10:16:07;7.87;;;7.33;;
53299;SDS011;39187;48.476;8.310;2023-06-26T10:18:35;8.57;;;7.80;;
53299;SDS011;39187;48.476;8.310;2023-06-26T10:21:04;8.53;;;8.07;;
53299;SDS011;39187;48.476;8.310;2023-06-26T10:23:31;7.90;;;7.40;;
53299;SDS011;39187;48.476;8.310;2023-06-26T10:26:00;16.80;;;8.87;;
53299;SDS011;39187;48.476;8.310;2023-06-26T10:28:26;8.20;;;7.67;;
53299;SDS011;39187;48.476;8.310;2023-06-26T10:30:55;8.40;;;7.80;;
53299;SDS011;39187;48.476;8.310;2023-06-26T10:33:22;9.07;;;8.43;;
53299;SDS011;39187;48.476;8.310;2023-06-26T10:35:48;9.57;;;8.50;;
53299;SDS011;39187;48.476;8.310;2023-06-26T10:38:14;7.47;;;7.17;;
53299;SDS011;39187;48.476;8.310;2023-06-26T10:40:43;8.70;;;8.00;;
53299;SDS011;39187;48.476;8.310;2023-06-26T10:43:11;8.80;;;8.10;;
53299;SDS011;39187;48.476;8.310;2023-06-26T10:45:45;7.40;;;6.90;;
53299;SDS011;39187;48.476;8.310;2023-06-26T10:48:14;7.17;;;6.73;;
53299;SDS011;39187;48.476;8.310;2023-06-26T10:50:40;8.37;;;7.83;;
53299;SDS011;39187;48.476;8.310;2023-06-26T10:55:49;7.60;;;7.07;;
53299;SDS011;39187;48.476;8.310;2023-06-26T10:58:32;8.10;;;7.60;;
53299;SDS011;39187;48.476;8.310;2023-06-26T11:03:40;15.30;;;7.13;;
53299;SDS011;39187;48.476;8.310;2023-06-26T11:06:09;8.10;;;7.30;;
53299;SDS011;39187;48.476;8.310;2023-06-26T11:08:48;8.10;;;7.70;;
53299;SDS011;39187;48.476;8.310;2023-06-26T11:11:17;7.60;;;7.10;;
53299;SDS011;39187;48.476;8.310;2023-06-26T11:13:44;8.10;;;7.70;;
53299;SDS011;39187;48.476;8.310;2023-06-26T11:16:11;7.03;;;6.60;;
53299;SDS011;39187;48.476;8.310;2023-06-26T11:18:37;7.50;;;6.80;;
53299;SDS011;39187;48.476;8.310;2023-06-26T11:21:10;7.47;;;6.97;;
53299;SDS011;39187;48.476;8.310;2023-06-26T11:23:38;7.63;;;7.07;;
53299;SDS011;39187;48.476;8.310;2023-06-26T11:28:49;7.57;;;7.20;;
53299;SDS011;39187;48.476;8.310;2023-06-26T11:33:57;7.77;;;7.07;;
53299;SDS011;39187;48.476;8.310;2023-06-26T11:36:24;7.50;;;7.10;;
53299;SDS011;39187;48.476;8.310;2023-06-26T11:39:00;7.83;;;7.23;;
53299;SDS011;39187;48.476;8.310;2023-06-26T11:41:28;8.60;;;7.90;;
53299;SDS011;39187;48.476;8.310;2023-06-26T11:43:55;7.60;;;7.30;;
53299;SDS011;39187;48.476;8.310;2023-06-26T11:46:25;6.67;;;6.37;;
53299;SDS011;39187;48.476;8.310;2023-06-26T11:48:50;6.90;;;6.60;;
53299;SDS011;39187;48.476;8.310;2023-06-26T11:51:17;6.47;;;6.07;;
53299;SDS011;39187;48.476;8.310;2023-06-26T11:53:42;7.50;;;6.93;;
53299;SDS011;39187;48.476;8.310;2023-06-26T11:56:11;8.33;;;7.70;;
53299;SDS011;39187;48.476;8.310;2023-06-26T12:01:22;6.50;;;6.00;;
53299;SDS011;39187;48.476;8.310;2023-06-26T12:03:49;7.67;;;7.03;;
53299;SDS011;39187;48.476;8.310;2023-06-26T12:06:15;7.23;;;6.83;;
53299;SDS011;39187;48.476;8.310;2023-06-26T12:08:41;7.40;;;6.90;;
53299;SDS011;39187;48.476;8.310;2023-06-26T12:11:08;7.67;;;7.17;;
53299;SDS011;39187;48.476;8.310;2023-06-26T12:13:34;6.83;;;6.37;;
53299;SDS011;39187;48.476;8.310;2023-06-26T12:16:00;7.03;;;6.60;;
53299;SDS011;39187;48.476;8.310;2023-06-26T12:18:25;7.13;;;6.40;;
53299;SDS011;39187;48.476;8.310;2023-06-26T12:20:51;10.43;;;7.23;;
53299;SDS011;39187;48.476;8.310;2023-06-26T12:23:17;7.60;;;6.97;;
53299;SDS011;39187;48.476;8.310;2023-06-26T12:25:43;7.50;;;7.00;;
53299;SDS011;39187;48.476;8.310;2023-06-26T12:28:18;8.03;;;7.33;;
53299;SDS011;39187;48.476;8.310;2023-06-26T12:30:47;6.70;;;6.30;;
53299;SDS011;39187;48.476;8.310;2023-06-26T12:33:33;7.47;;;7.00;;
53299;SDS011;39187;48.476;8.310;2023-06-26T12:35:58;6.03;;;5.73;;
53299;SDS011;39187;48.476;8.310;2023-06-26T12:38:32;6.63;;;6.00;;
53299;SDS011;39187;48.476;8.310;2023-06-26T12:40:58;7.40;;;6.73;;
53299;SDS011;39187;48.476;8.310;2023-06-26T12:43:25;8.47;;;7.87;;
53299;SDS011;39187;48.476;8.310;2023-06-26T12:45:54;9.13;;;6.30;;
53299;SDS011;39187;48.476;8.310;2023-06-26T12:48:21;6.90;;;6.30;;
53299;SDS011;39187;48.476;8.310;2023-06-26T12:51:09;5.60;;;5.30;;
53299;SDS011;39187;48.476;8.310;2023-06-26T12:53:35;5.40;;;4.93;;
53299;SDS011;39187;48.476;8.310;2023-06-26T12:56:01;7.40;;;6.67;;
53299;SDS011;39187;48.476;8.310;2023-06-26T12:58:27;5.53;;;5.03;;
53299;SDS011;39187;48.476;8.310;2023-06-26T13:00:53;6.63;;;5.50;;
53299;SDS011;39187;48.476;8.310;2023-06-26T13:03:19;6.17;;;5.77;;
53299;SDS011;39187;48.476;8.310;2023-06-26T13:05:46;7.00;;;6.47;;
53299;SDS011;39187;48.476;8.310;2023-06-26T13:08:12;6.23;;;6.03;;
53299;SDS011;39187;48.476;8.310;2023-06-26T13:10:37;5.80;;;5.60;;
53299;SDS011;39187;48.476;8.310;2023-06-26T13:13:04;6.40;;;6.03;;
53299;SDS011;39187;48.476;8.310;2023-06-26T13:15:30;6.30;;;5.80;;
53299;SDS011;39187;48.476;8.310;2023-06-26T13:17:55;6.00;;;5.70;;
53299;SDS011;39187;48.476;8.310;2023-06-26T13:20:21;6.40;;;5.90;;
53299;SDS011;39187;48.476;8.310;2023-06-26T13:22:46;5.80;;;5.30;;
53299;SDS011;39187;48.476;8.310;2023-06-26T13:25:12;5.60;;;5.30;;
53299;SDS011;39187;48.476;8.310;2023-06-26T13:27:38;7.33;;;5.97;;
53299;SDS011;39187;48.476;8.310;2023-06-26T13:30:03;6.07;;;5.77;;
53299;SDS011;39187;48.476;8.310;2023-06-26T13:32:29;5.50;;;5.10;;
53299;SDS011;39187;48.476;8.310;2023-06-26T13:34:55;6.20;;;5.80;;
53299;SDS011;39187;48.476;8.310;2023-06-26T13:37:20;7.10;;;6.00;;
53299;SDS011;39187;48.476;8.310;2023-06-26T13:39:46;6.37;;;6.00;;
53299;SDS011;39187;48.476;8.310;2023-06-26T13:42:16;5.70;;;5.37;;
53299;SDS011;39187;48.476;8.310;2023-06-26T13:44:42;6.23;;;5.93;;
53299;SDS011;39187;48.476;8.310;2023-06-26T13:47:09;6.73;;;5.33;;
53299;SDS011;39187;48.476;8.310;2023-06-26T13:49:37;6.83;;;6.13;;
53299;SDS011;39187;48.476;8.310;2023-06-26T13:52:03;7.23;;;6.33;;
53299;SDS011;39187;48.476;8.310;2023-06-26T13:54:29;5.77;;;5.43;;
53299;SDS011;39187;48.476;8.310;2023-06-26T13:56:54;6.90;;;5.97;;
53299;SDS011;39187;48.476;8.310;2023-06-26T13:59:23;5.37;;;5.17;;
53299;SDS011;39187;48.476;8.310;2023-06-26T14:01:50;5.73;;;4.87;;
53299;SDS011;39187;48.476;8.310;2023-06-26T14:04:16;6.33;;;4.63;;
53299;SDS011;39187;48.476;8.310;2023-06-26T14:06:41;5.00;;;4.80;;
53299;SDS011;39187;48.476;8.310;2023-06-26T14:09:07;5.27;;;4.80;;
53299;SDS011;39187;48.476;8.310;2023-06-26T14:11:33;6.40;;;4.70;;
53299;SDS011;39187;48.476;8.310;2023-06-26T14:13:59;9.47;;;5.17;;
53299;SDS011;39187;48.476;8.310;2023-06-26T14:16:25;5.20;;;5.00;;
53299;SDS011;39187;48.476;8.310;2023-06-26T14:18:51;5.43;;;4.93;;
53299;SDS011;39187;48.476;8.310;2023-06-26T14:21:16;4.30;;;4.07;;
53299;SDS011;39187;48.476;8.310;2023-06-26T14:23:42;5.60;;;4.93;;
53299;SDS011;39187;48.476;8.310;2023-06-26T14:26:08;4.00;;;3.80;;
53299;SDS011;39187;48.476;8.310;2023-06-26T14:28:33;4.70;;;4.17;;
53299;SDS011;39187;48.476;8.310;2023-06-26T14:30:59;5.00;;;4.60;;
53299;SDS011;39187;48.476;8.310;2023-06-26T14:33:25;4.77;;;4.40;;
53299;SDS011;39187;48.476;8.310;2023-06-26T14:35:50;4.43;;;4.03;;
53299;SDS011;39187;48.476;8.310;2023-06-26T14:38:16;7.20;;;4.80;;
53299;SDS011;39187;48.476;8.310;2023-06-26T14:40:41;5.53;;;5.13;;
53299;SDS011;39187;48.476;8.310;2023-06-26T14:43:07;5.03;;;4.83;;
53299;SDS011;39187;48.476;8.310;2023-06-26T14:45:32;7.53;;;4.90;;
53299;SDS011;39187;48.476;8.310;2023-06-26T14:47:58;4.57;;;4.27;;
53299;SDS011;39187;48.476;8.310;2023-06-26T14:50:23;5.13;;;4.93;;
53299;SDS011;39187;48.476;8.310;2023-06-26T14:52:49;5.50;;;5.10;;
53299;SDS011;39187;48.476;8.310;2023-06-26T14:55:14;5.37;;;5.03;;
53299;SDS011;39187;48.476;8.310;2023-06-26T14:57:40;12.00;;;5.37;;
53299;SDS011;39187;48.476;8.310;2023-06-26T15:00:06;5.93;;;5.57;;
53299;SDS011;39187;48.476;8.310;2023-06-26T15:02:32;6.00;;;5.60;;
53299;SDS011;39187;48.476;8.310;2023-06-26T15:04:57;6.70;;;6.30;;
53299;SDS011;39187;48.476;8.310;2023-06-26T15:07:23;7.60;;;5.47;;